sensor_id;sensor_type;location;lat;lon;timestamp;pressure;altitude;pressure_sealevel;temperature;humidity
47710;BME280;33473;51.640;5.892;2023-05-08T00:02:52;101900;;;20.9;57.0
47710;BME280;33473;51.640;5.892;2023-05-08T00:16:11;101900;;;20.9;57.0
47710;BME280;33473;51.640;5.892;2023-05-08T00:29:31;101900;;;21.0;57.0
47710;BME280;33473;51.640;5.892;2023-05-08T00:42:51;101900;;;20.9;57.0
47710;BME280;33473;51.640;5.892;2023-05-08T00:56:11;101900;;;20.9;57.0
47710;BME280;33473;51.640;5.892;2023-05-08T01:09:30;101900;;;20.9;57.0
47710;BME280;33473;51.640;5.892;2023-05-08T01:22:50;101900;;;20.9;57.0
47710;BME280;33473;51.640;5.892;2023-05-08T01:36:10;101900;;;20.9;57.0
47710;BME280;33473;51.640;5.892;2023-05-08T01:49:30;101900;;;20.8;57.0
47710;BME280;33473;51.640;5.892;2023-05-08T02:02:49;101900;;;20.8;57.0
47710;BME280;33473;51.640;5.892;2023-05-08T02:16:09;101900;;;20.8;57.0
47710;BME280;33473;51.640;5.892;2023-05-08T02:29:29;101900;;;20.8;57.0
47710;BME280;33473;51.640;5.892;2023-05-08T02:42:49;101900;;;20.9;57.0
47710;BME280;33473;51.640;5.892;2023-05-08T02:56:08;101900;;;20.9;57.0
47710;BME280;33473;51.640;5.892;2023-05-08T03:09:28;101900;;;20.8;57.0
47710;BME280;33473;51.640;5.892;2023-05-08T03:22:48;101900;;;20.8;57.0
47710;BME280;33473;51.640;5.892;2023-05-08T03:36:08;101900;;;20.7;57.0
47710;BME280;33473;51.640;5.892;2023-05-08T03:49:27;101900;;;20.6;56.0
47710;BME280;33473;51.640;5.892;2023-05-08T04:02:47;101900;;;20.5;56.0
47710;BME280;33473;51.640;5.892;2023-05-08T04:16:07;101900;;;20.5;56.0
47710;BME280;33473;51.640;5.892;2023-05-08T04:29:27;101900;;;20.5;56.0
47710;BME280;33473;51.640;5.892;2023-05-08T04:42:46;101900;;;20.4;57.0
47710;BME280;33473;51.640;5.892;2023-05-08T04:56:06;101900;;;20.5;57.0
47710;BME280;33473;51.640;5.892;2023-05-08T05:22:46;101900;;;21.1;58.0
47710;BME280;33473;51.640;5.892;2023-05-08T05:36:05;101900;;;21.3;58.0
47710;BME280;33473;51.640;5.892;2023-05-08T05:49:25;102000;;;21.4;57.0
47710;BME280;33473;51.640;5.892;2023-05-08T06:02:45;102000;;;21.4;57.0
47710;BME280;33473;51.640;5.892;2023-05-08T06:16:04;102000;;;21.7;57.0
47710;BME280;33473;51.640;5.892;2023-05-08T06:29:24;102000;;;21.7;57.0
47710;BME280;33473;51.640;5.892;2023-05-08T06:42:44;102000;;;22.0;57.0
47710;BME280;33473;51.640;5.892;2023-05-08T06:56:04;102000;;;22.3;57.0
47710;BME280;33473;51.640;5.892;2023-05-08T07:09:23;102000;;;22.6;56.0
47710;BME280;33473;51.640;5.892;2023-05-08T07:22:43;102000;;;22.8;55.0
47710;BME280;33473;51.640;5.892;2023-05-08T07:36:03;102000;;;23.1;55.0
47710;BME280;33473;51.640;5.892;2023-05-08T07:49:23;102000;;;23.2;54.0
47710;BME280;33473;51.640;5.892;2023-05-08T08:02:42;102000;;;23.2;54.0
47710;BME280;33473;51.640;5.892;2023-05-08T08:16:02;102000;;;23.5;54.0
47710;BME280;33473;51.640;5.892;2023-05-08T08:29:22;102000;;;23.8;54.0
47710;BME280;33473;51.640;5.892;2023-05-08T08:42:42;102000;;;24.3;52.0
47710;BME280;33473;51.640;5.892;2023-05-08T08:56:01;102000;;;25.0;50.0
47710;BME280;33473;51.640;5.892;2023-05-08T09:09:21;102000;;;25.7;49.0
47710;BME280;33473;51.640;5.892;2023-05-08T09:22:41;102000;;;26.5;47.0
47710;BME280;33473;51.640;5.892;2023-05-08T09:36:00;102000;;;26.7;45.0
47710;BME280;33473;51.640;5.892;2023-05-08T09:49:20;102000;;;27.0;47.0
47710;BME280;33473;51.640;5.892;2023-05-08T10:02:40;102000;;;27.3;42.0
47710;BME280;33473;51.640;5.892;2023-05-08T10:16:00;102000;;;27.6;43.0
47710;BME280;33473;51.640;5.892;2023-05-08T10:29:19;102000;;;25.5;49.0
47710;BME280;33473;51.640;5.892;2023-05-08T10:42:39;102000;;;25.8;48.0
47710;BME280;33473;51.640;5.892;2023-05-08T10:55:58;102000;;;25.7;48.0
47710;BME280;33473;51.640;5.892;2023-05-08T11:09:18;102000;;;25.9;48.0
47710;BME280;33473;51.640;5.892;2023-05-08T11:22:38;101900;;;25.9;46.0
47710;BME280;33473;51.640;5.892;2023-05-08T11:35:57;101900;;;26.0;46.0
47710;BME280;33473;51.640;5.892;2023-05-08T11:49:17;101900;;;26.5;46.0
47710;BME280;33473;51.640;5.892;2023-05-08T12:02:37;101900;;;26.4;46.0
47710;BME280;33473;51.640;5.892;2023-05-08T12:15:56;101900;;;27.4;45.0
47710;BME280;33473;51.640;5.892;2023-05-08T12:29:16;101900;;;27.9;41.0
47710;BME280;33473;51.640;5.892;2023-05-08T12:42:36;101900;;;27.7;42.0
47710;BME280;33473;51.640;5.892;2023-05-08T12:55:55;101900;;;28.7;38.0
47710;BME280;33473;51.640;5.892;2023-05-08T13:09:15;101900;;;28.7;40.0
47710;BME280;33473;51.640;5.892;2023-05-08T13:22:35;101900;;;28.1;42.0
47710;BME280;33473;51.640;5.892;2023-05-08T13:35:54;101900;;;27.8;42.0
47710;BME280;33473;51.640;5.892;2023-05-08T13:49:14;101800;;;27.6;42.0
47710;BME280;33473;51.640;5.892;2023-05-08T14:02:34;101800;;;29.0;39.0
47710;BME280;33473;51.640;5.892;2023-05-08T14:15:53;101800;;;29.3;39.0
47710;BME280;33473;51.640;5.892;2023-05-08T14:29:13;101800;;;28.4;40.0
47710;BME280;33473;51.640;5.892;2023-05-08T14:42:33;101800;;;28.3;42.0
47710;BME280;33473;51.640;5.892;2023-05-08T14:55:53;101800;;;27.9;40.0
47710;BME280;33473;51.640;5.892;2023-05-08T15:09:12;101800;;;27.7;41.0
47710;BME280;33473;51.640;5.892;2023-05-08T15:22:32;101800;;;27.4;39.0
47710;BME280;33473;51.640;5.892;2023-05-08T15:35:52;101800;;;27.2;43.0
47710;BME280;33473;51.640;5.892;2023-05-08T15:49:11;101800;;;26.8;46.0
47710;BME280;33473;51.640;5.892;2023-05-08T16:02:31;101800;;;26.3;49.0
47710;BME280;33473;51.640;5.892;2023-05-08T16:15:51;101800;;;25.9;49.0
47710;BME280;33473;51.640;5.892;2023-05-08T16:29:11;101800;;;25.5;49.0
47710;BME280;33473;51.640;5.892;2023-05-08T16:42:30;101800;;;25.3;50.0
47710;BME280;33473;51.640;5.892;2023-05-08T16:55:50;101800;;;25.1;50.0
47710;BME280;33473;51.640;5.892;2023-05-08T17:09:10;101800;;;24.8;51.0
47710;BME280;33473;51.640;5.892;2023-05-08T17:22:29;101800;;;23.7;54.0
47710;BME280;33473;51.640;5.892;2023-05-08T17:35:49;101800;;;23.4;55.0
47710;BME280;33473;51.640;5.892;2023-05-08T17:49:09;101800;;;23.7;54.0
47710;BME280;33473;51.640;5.892;2023-05-08T18:02:28;101800;;;23.6;55.0
47710;BME280;33473;51.640;5.892;2023-05-08T18:15:48;101800;;;23.6;55.0
47710;BME280;33473;51.640;5.892;2023-05-08T18:29:08;101800;;;23.6;55.0
47710;BME280;33473;51.640;5.892;2023-05-08T18:42:28;101800;;;23.6;55.0
47710;BME280;33473;51.640;5.892;2023-05-08T18:55:47;101800;;;23.5;56.0
47710;BME280;33473;51.640;5.892;2023-05-08T19:09:07;101800;;;23.4;56.0
47710;BME280;33473;51.640;5.892;2023-05-08T19:22:27;101800;;;23.2;55.0
47710;BME280;33473;51.640;5.892;2023-05-08T19:35:47;101800;;;23.0;55.0
47710;BME280;33473;51.640;5.892;2023-05-08T19:49:06;101800;;;22.7;55.0
47710;BME280;33473;51.640;5.892;2023-05-08T20:02:26;101800;;;22.2;56.0
47710;BME280;33473;51.640;5.892;2023-05-08T20:15:46;101800;;;22.2;57.0
47710;BME280;33473;51.640;5.892;2023-05-08T20:29:06;101800;;;22.2;57.0
47710;BME280;33473;51.640;5.892;2023-05-08T20:42:25;101800;;;22.4;57.0
47710;BME280;33473;51.640;5.892;2023-05-08T20:55:45;101800;;;22.2;57.0
47710;BME280;33473;51.640;5.892;2023-05-08T21:09:05;101800;;;22.2;57.0
47710;BME280;33473;51.640;5.892;2023-05-08T21:22:25;101800;;;21.6;58.0
47710;BME280;33473;51.640;5.892;2023-05-08T21:35:44;101800;;;21.6;58.0
47710;BME280;33473;51.640;5.892;2023-05-08T21:49:04;101800;;;21.5;58.0
47710;BME280;33473;51.640;5.892;2023-05-08T22:02:24;101800;;;21.5;57.0
47710;BME280;33473;51.640;5.892;2023-05-08T22:15:44;101800;;;21.5;56.0
47710;BME280;33473;51.640;5.892;2023-05-08T22:29:03;101800;;;21.5;56.0
47710;BME280;33473;51.640;5.892;2023-05-08T22:42:23;101700;;;21.5;56.0
47710;BME280;33473;51.640;5.892;2023-05-08T22:55:43;101700;;;21.6;56.0
47710;BME280;33473;51.640;5.892;2023-05-08T23:09:03;101700;;;21.5;56.0
47710;BME280;33473;51.640;5.892;2023-05-08T23:22:22;101700;;;21.5;56.0
47710;BME280;33473;51.640;5.892;2023-05-08T23:35:42;101700;;;21.4;56.0
47710;BME280;33473;51.640;5.892;2023-05-08T23:49:02;101700;;;21.2;56.0
